Time;durP1;ratioP1;P1;durP2;ratioP2;P2;SDS_P1;SDS_P2;PMS_P1;PMS_P2;Temp;Humidity;BMP_temperature;BMP_pressure;BME280_temperature;BME280_humidity;BME280_pressure;Samples;Min_cycle;Max_cycle;Signal;HPM_P1;HPM_P2
2020/12/09 00:01:49;;;;;;;2.95;2.17;;;;;;;19.00;49.87;100817.22;4817002;29;20083;-75
2020/12/09 00:04:15;;;;;;;6.35;3.22;;;;;;;18.98;49.83;100816.34;4811658;29;20041;-76
2020/12/09 00:06:41;;;;;;;4.03;3.53;;;;;;;18.92;49.88;100812.03;4843452;29;20025;-75
2020/12/09 00:09:09;;;;;;;3.65;2.33;;;;;;;18.98;49.99;100816.34;4839999;29;20034;-75
2020/12/09 00:11:35;;;;;;;3.30;2.58;;;;;;;18.93;49.76;100815.53;4825187;29;20098;-75
2020/12/09 00:14:01;;;;;;;3.70;2.85;;;;;;;18.89;49.93;100811.19;4827190;29;20056;-75
2020/12/09 00:16:27;;;;;;;3.90;2.88;;;;;;;18.89;49.70;100816.41;4817666;29;20116;-76
2020/12/09 00:18:52;;;;;;;3.55;2.45;;;;;;;18.87;49.81;100807.69;4814013;29;20038;-75
2020/12/09 00:21:22;;;;;;;4.18;2.60;;;;;;;18.85;49.81;100810.31;4830286;29;20036;-78
2020/12/09 00:23:49;;;;;;;5.55;2.20;;;;;;;18.91;49.70;100819.91;4832472;29;20042;-75
2020/12/09 00:26:23;;;;;;;2.90;2.60;;;;;;;18.93;49.90;100826.00;4831618;29;20045;-75
2020/12/09 00:28:49;;;;;;;;;;;;;;;18.92;49.81;100819.91;4835240;29;20022;-75
2020/12/09 00:31:15;;;;;;;4.07;3.20;;;;;;;18.85;49.77;100812.94;4850402;29;19968;-75
2020/12/09 00:33:42;;;;;;;4.22;2.95;;;;;;;18.91;49.72;100822.53;4841424;29;20085;-75
2020/12/09 00:36:08;;;;;;;3.50;2.95;;;;;;;18.86;50.14;100808.56;4839751;29;20034;-75
2020/12/09 00:38:34;;;;;;;4.63;2.53;;;;;;;18.90;49.83;100823.41;4812458;29;20041;-75
2020/12/09 00:40:59;;;;;;;2.60;2.28;;;;;;;18.84;49.70;100813.81;4838589;29;20030;-75
2020/12/09 00:43:24;;;;;;;3.53;2.28;;;;;;;18.85;49.67;100815.56;4815007;29;20065;-75
2020/12/09 00:45:50;;;;;;;4.45;3.22;;;;;;;18.89;49.77;100826.91;4785708;29;20025;-76
2020/12/09 00:48:15;;;;;;;3.85;2.53;;;;;;;18.89;49.68;100827.78;4796299;29;20068;-75
2020/12/09 00:50:40;;;;;;;3.30;2.33;;;;;;;18.87;49.78;100823.41;4819035;29;20049;-75
2020/12/09 00:53:06;;;;;;;4.32;2.30;;;;;;;18.83;49.62;100819.94;4800541;29;20031;-76
2020/12/09 00:55:31;;;;;;;4.60;2.83;;;;;;;18.87;49.75;100821.66;4814454;29;20029;-75
2020/12/09 00:57:57;;;;;;;2.80;2.53;;;;;;;18.80;49.33;100814.75;4813961;29;20533;-75
2020/12/09 01:00:23;;;;;;;3.30;2.50;;;;;;;18.84;49.62;100820.81;4801024;29;20038;-76
2020/12/09 01:02:48;;;;;;;5.90;3.35;;;;;;;18.78;49.74;100813.00;4810942;29;20030;-74
2020/12/09 01:05:14;;;;;;;3.58;2.90;;;;;;;18.76;49.52;100814.75;4810175;29;20027;-74
2020/12/09 01:07:39;;;;;;;2.92;2.55;;;;;;;18.76;49.68;100814.75;4811880;29;20025;-75
2020/12/09 01:10:07;;;;;;;2.97;2.63;;;;;;;18.84;49.60;100826.06;4829609;29;20069;-74
2020/12/09 01:12:32;;;;;;;3.67;2.65;;;;;;;18.80;49.63;100830.47;4809540;29;20041;-74
2020/12/09 01:14:58;;;;;;;3.42;2.63;;;;;;;18.68;49.48;100806.97;4809786;29;20034;-74
2020/12/09 01:17:23;;;;;;;3.08;2.00;;;;;;;18.81;49.72;100840.06;4809750;29;20062;-74
2020/12/09 01:19:51;;;;;;;3.70;2.83;;;;;;;18.79;49.74;100827.84;4809575;29;20077;-74
2020/12/09 01:22:17;;;;;;;3.35;2.50;;;;;;;18.76;49.82;100826.13;4779696;29;20058;-75
2020/12/09 01:24:42;;;;;;;2.40;2.05;;;;;;;18.80;49.58;100840.06;4809515;29;20068;-74
2020/12/09 01:27:08;;;;;;;3.50;2.67;;;;;;;18.78;49.58;100845.31;4808444;29;20521;-74
2020/12/09 01:29:33;;;;;;;2.92;2.17;;;;;;;18.76;49.53;100841.81;4825659;29;20463;-77
2020/12/09 01:32:02;;;;;;;3.13;2.78;;;;;;;18.77;49.74;100847.94;4794487;29;20030;-76
2020/12/09 01:34:29;;;;;;;4.63;2.70;;;;;;;18.78;49.79;100850.56;4794069;29;20030;-74
2020/12/09 01:36:55;;;;;;;4.68;3.33;;;;;;;18.77;49.72;100851.44;4809228;29;20041;-74
2020/12/09 01:39:20;;;;;;;2.63;2.40;;;;;;;18.71;49.70;100840.97;4776328;29;20027;-77
2020/12/09 01:41:46;;;;;;;4.68;2.92;;;;;;;18.73;49.73;100846.22;4778213;29;20050;-77
2020/12/09 01:44:13;;;;;;;4.07;3.20;;;;;;;18.73;49.63;100851.44;4823743;29;20145;-74
2020/12/09 01:46:39;;;;;;;4.20;2.80;;;;;;;18.75;49.93;100861.03;4827079;29;20472;-74
2020/12/09 01:49:04;;;;;;;3.65;2.58;;;;;;;18.68;49.59;100840.16;4811491;29;20125;-77
2020/12/09 01:51:31;;;;;;;3.53;2.75;;;;;;;18.75;49.57;100852.31;4849479;29;20022;-75
2020/12/09 01:53:58;;;;;;;3.65;2.67;;;;;;;18.65;49.70;100843.66;4849973;29;20402;-75
2020/12/09 01:56:24;;;;;;;3.15;2.40;;;;;;;18.72;49.79;100854.94;4843404;29;20038;-77
2020/12/09 01:58:51;;;;;;;2.67;2.25;;;;;;;18.68;49.64;100855.88;4843507;29;20024;-77
2020/12/09 02:01:17;;;;;;;3.95;3.00;;;;;;;18.69;49.72;100861.09;4842681;29;20036;-75
2020/12/09 02:03:43;;;;;;;3.17;2.85;;;;;;;18.70;49.64;100861.94;4828223;29;20026;-75
2020/12/09 02:06:08;;;;;;;3.30;2.63;;;;;;;18.69;49.53;100865.47;4808678;29;20038;-75
2020/12/09 02:08:34;;;;;;;3.80;2.72;;;;;;;18.67;49.50;100859.34;4824697;29;20034;-76
2020/12/09 02:11:00;;;;;;;3.40;2.33;;;;;;;18.66;49.50;100855.00;4816100;29;20037;-75
2020/12/09 02:13:27;;;;;;;3.45;2.20;;;;;;;18.67;49.55;100857.63;4815783;29;20034;-76
2020/12/09 02:15:53;;;;;;;4.65;2.53;;;;;;;18.68;49.61;100861.09;4826570;29;20044;-76
2020/12/09 02:18:19;;;;;;;4.82;3.00;;;;;;;18.69;49.70;100865.47;4828125;29;20038;-75
2020/12/09 02:20:44;;;;;;;3.25;2.83;;;;;;;18.63;49.61;100855.88;4838828;29;20469;-77
2020/12/09 02:23:09;;;;;;;2.90;2.60;;;;;;;18.67;49.53;100860.22;4814094;29;20117;-75
2020/12/09 02:25:35;;;;;;;2.80;2.45;;;;;;;18.68;49.58;100861.09;4842919;29;20034;-77
2020/12/09 02:28:00;;;;;;;5.20;3.13;;;;;;;18.68;49.75;100869.84;4826552;29;20116;-75
2020/12/09 02:30:25;;;;;;;3.40;2.40;;;;;;;18.57;49.55;100850.63;4831765;29;20389;-75
2020/12/09 02:32:51;;;;;;;3.10;2.42;;;;;;;18.69;49.56;100862.84;4822790;29;20044;-75
2020/12/09 02:35:16;;;;;;;2.95;2.65;;;;;;;18.74;49.27;100858.44;4809561;29;20045;-75
2020/12/09 02:37:41;;;;;;;2.97;2.53;;;;;;;18.74;49.15;100853.19;4837865;29;20037;-75
2020/12/09 02:40:07;;;;;;;2.67;2.40;;;;;;;18.73;49.17;100838.34;4809896;29;20039;-75
2020/12/09 02:42:32;;;;;;;3.88;2.33;;;;;;;18.76;49.25;100840.97;4824177;29;20054;-77
2020/12/09 02:44:57;;;;;;;3.08;2.67;;;;;;;18.84;49.20;100849.63;4822230;29;20089;-75
2020/12/09 02:47:23;;;;;;;2.75;2.22;;;;;;;18.83;48.98;100853.13;4813173;29;20389;-75
2020/12/09 02:49:48;;;;;;;4.22;2.13;;;;;;;18.85;49.23;100849.63;4809941;29;20058;-75
2020/12/09 02:52:13;;;;;;;2.65;2.28;;;;;;;18.86;49.21;100847.88;4811609;29;20094;-78
2020/12/09 02:54:39;;;;;;;3.20;2.40;;;;;;;18.87;49.27;100850.50;4828642;29;20037;-75
2020/12/09 02:57:04;;;;;;;3.05;2.40;;;;;;;18.84;49.33;100833.91;4826982;29;20045;-75
2020/12/09 02:59:30;;;;;;;3.05;2.00;;;;;;;18.87;49.23;100847.88;4819615;29;20397;-75
2020/12/09 03:01:55;;;;;;;3.22;2.35;;;;;;;18.83;49.50;100840.91;4808237;29;20068;-75
2020/12/09 03:04:20;;;;;;;3.10;2.17;;;;;;;18.83;49.43;100837.41;4809860;29;20030;-77
2020/12/09 03:06:46;;;;;;;3.40;2.85;;;;;;;18.82;49.52;100846.19;4825812;29;20116;-77
2020/12/09 03:09:11;;;;;;;3.67;2.25;;;;;;;18.79;49.57;100835.72;4816925;29;20073;-76
2020/12/09 03:11:37;;;;;;;2.80;2.22;;;;;;;18.78;49.46;100834.84;4825854;29;20044;-75
2020/12/09 03:14:02;;;;;;;2.25;1.73;;;;;;;18.76;49.53;100835.72;4830004;29;20481;-75
2020/12/09 03:16:27;;;;;;;2.85;2.63;;;;;;;18.79;49.46;100840.94;4835566;29;20094;-75
2020/12/09 03:18:53;;;;;;;3.28;2.15;;;;;;;18.72;49.45;100832.25;4854655;29;20037;-77
2020/12/09 03:21:19;;;;;;;2.80;2.35;;;;;;;18.74;49.57;100842.72;4834084;29;20040;-77
2020/12/09 03:23:44;;;;;;;3.35;2.92;;;;;;;18.75;49.42;100850.56;4826950;29;20044;-77
2020/12/09 03:26:10;;;;;;;3.05;2.33;;;;;;;18.70;49.67;100835.75;4826104;29;20029;-74
2020/12/09 03:28:36;;;;;;;2.67;2.20;;;;;;;18.75;49.56;100849.69;4825923;29;20030;-74
2020/12/09 03:31:05;;;;;;;2.88;2.45;;;;;;;18.74;49.50;100850.56;4825918;29;20085;-74
2020/12/09 03:33:32;;;;;;;2.67;2.22;;;;;;;18.74;49.87;100861.91;4825872;29;20495;-74
2020/12/09 03:35:57;;;;;;;3.45;2.38;;;;;;;18.73;49.50;100856.69;4825704;29;20060;-77
2020/12/09 03:38:23;;;;;;;2.58;2.10;;;;;;;18.67;49.56;100851.50;4841700;29;20061;-76
2020/12/09 03:40:49;;;;;;;3.65;2.65;;;;;;;18.69;49.48;100863.72;4838051;29;20030;-77
2020/12/09 03:43:15;;;;;;;3.53;2.33;;;;;;;18.65;49.50;100855.88;4822324;29;20511;-74
2020/12/09 03:45:41;;;;;;;2.30;1.98;;;;;;;18.63;49.34;100847.16;4824155;29;20030;-74
2020/12/09 03:48:06;;;;;;;3.17;2.17;;;;;;;18.65;49.49;100855.88;4840356;29;20370;-77
2020/12/09 03:50:32;;;;;;;3.10;2.25;;;;;;;18.61;49.37;100852.38;4826754;29;20165;-75
2020/12/09 03:52:57;;;;;;;2.38;2.13;;;;;;;18.66;49.32;100866.34;4845742;29;20037;-77
2020/12/09 03:55:23;;;;;;;3.33;2.30;;;;;;;18.63;49.50;100863.72;4828856;29;20067;-74
2020/12/09 03:57:48;;;;;;;3.05;2.47;;;;;;;18.59;49.45;100859.38;4845550;29;20473;-76
2020/12/09 04:00:14;;;;;;;4.97;2.72;;;;;;;18.63;49.45;100860.25;4835311;29;20435;-74
2020/12/09 04:02:39;;;;;;;3.33;2.75;;;;;;;18.60;49.27;100860.25;4828508;29;20124;-74
2020/12/09 04:05:05;;;;;;;3.67;2.90;;;;;;;18.61;49.22;100865.47;4815976;29;20062;-74
2020/12/09 04:07:30;;;;;;;3.13;2.28;;;;;;;18.57;49.32;100854.13;4848157;29;20504;-74
2020/12/09 04:09:56;;;;;;;3.58;2.35;;;;;;;18.54;49.40;100851.53;4828886;29;20109;-74
2020/12/09 04:12:23;;;;;;;2.78;2.33;;;;;;;18.56;49.44;100852.38;4828472;29;20038;-77
2020/12/09 04:14:52;;;;;;;3.33;2.33;;;;;;;18.59;49.23;100856.75;4828665;29;20030;-74
2020/12/09 04:17:19;;;;;;;3.10;2.63;;;;;;;18.57;49.20;100848.00;4827759;29;20058;-77
2020/12/09 04:19:48;;;;;;;2.70;2.38;;;;;;;18.54;49.33;100848.91;4819059;29;20090;-77
2020/12/09 04:22:15;;;;;;;3.10;2.28;;;;;;;18.55;49.48;100853.28;4834544;29;20078;-77
2020/12/09 04:24:40;;;;;;;3.40;2.80;;;;;;;18.55;49.22;100849.78;4845616;29;20108;-77
2020/12/09 04:27:06;;;;;;;3.13;2.58;;;;;;;18.55;49.25;100858.50;4829442;29;20121;-74
2020/12/09 04:29:31;;;;;;;2.53;2.10;;;;;;;18.51;49.37;100854.16;4812927;29;20038;-74
2020/12/09 04:31:56;;;;;;;3.20;2.65;;;;;;;18.53;49.56;100859.41;4803793;29;20128;-77
2020/12/09 04:34:22;;;;;;;2.53;1.95;;;;;;;18.53;49.46;100860.25;4814212;29;20510;-74
2020/12/09 04:36:49;;;;;;;2.90;2.58;;;;;;;18.52;49.14;100868.13;4844870;29;20061;-77
2020/12/09 04:39:15;;;;;;;2.95;2.58;;;;;;;18.50;49.05;100859.41;4850073;29;20397;-74
2020/12/09 04:41:41;;;;;;;2.60;2.03;;;;;;;18.45;49.26;100851.56;4812996;29;20065;-74
2020/12/09 04:44:06;;;;;;;3.08;2.50;;;;;;;18.51;49.16;100874.25;4819319;29;20038;-77
2020/12/09 04:46:39;;;;;;;2.60;2.00;;;;;;;18.47;49.35;100867.25;4834027;29;20485;-74
2020/12/09 04:49:11;;;;;;;4.13;2.65;;;;;;;18.45;49.08;100859.41;4825041;29;20477;-74
2020/12/09 04:51:49;;;;;;;3.22;2.40;;;;;;;18.48;48.99;100872.50;4849147;29;20150;-74
2020/12/09 04:54:16;;;;;;;2.78;2.38;;;;;;;18.44;49.21;100860.28;4852658;29;20041;-74
2020/12/09 04:56:54;;;;;;;2.50;2.13;;;;;;;18.44;49.26;100867.28;4829751;29;20034;-74
2020/12/09 04:59:24;;;;;;;3.40;2.88;;;;;;;18.42;49.34;100867.31;4837272;29;20094;-74
2020/12/09 05:02:07;;;;;;;3.05;2.60;;;;;;;18.44;49.13;100873.38;4823896;29;20046;-74
2020/12/09 05:04:34;;;;;;;3.15;2.80;;;;;;;18.46;49.04;100873.38;4834469;29;20086;-74
2020/12/09 05:07:11;;;;;;;5.28;2.55;;;;;;;18.45;49.38;100875.13;4845856;29;20038;-76
2020/12/09 05:09:44;;;;;;;3.15;2.88;;;;;;;18.40;48.98;100868.19;4824314;29;20458;-73
2020/12/09 05:12:13;;;;;;;3.10;2.55;;;;;;;18.39;49.09;100874.28;4847199;29;20448;-77
2020/12/09 05:14:43;;;;;;;4.38;3.05;;;;;;;18.39;49.28;100875.16;4844165;29;20026;-74
2020/12/09 05:17:10;;;;;;;3.33;2.83;;;;;;;18.37;48.97;100858.59;4830089;29;20489;-74
2020/12/09 05:19:36;;;;;;;3.03;2.60;;;;;;;18.39;49.11;100863.81;4796639;29;20375;-74
2020/12/09 05:22:10;;;;;;;3.35;2.60;;;;;;;18.42;49.07;100874.28;4844630;29;20030;-75
2020/12/09 05:24:35;;;;;;;;;;;;;;;18.50;48.92;100873.38;4830484;29;20090;-75
2020/12/09 05:27:03;;;;;;;3.40;2.60;;;;;;;18.54;48.76;100879.47;4845827;29;19916;-74
2020/12/09 05:29:28;;;;;;;2.88;1.88;;;;;;;18.48;48.65;100875.13;4829585;29;20554;-74
2020/12/09 05:32:00;;;;;;;2.70;2.22;;;;;;;18.57;48.79;100888.16;4831223;29;20065;-73
2020/12/09 05:34:33;;;;;;;4.00;3.05;;;;;;;18.53;48.71;100877.72;4845915;29;20026;-74
2020/12/09 05:37:03;;;;;;;2.40;1.98;;;;;;;18.55;48.70;100883.84;4848350;29;20034;-74
2020/12/09 05:39:30;;;;;;;3.83;2.65;;;;;;;18.57;48.64;100887.28;4836316;29;20147;-74
2020/12/09 05:41:56;;;;;;;4.95;2.70;;;;;;;18.64;48.66;100888.19;4827198;29;20110;-77
2020/12/09 05:44:23;;;;;;;3.25;2.50;;;;;;;18.68;48.73;100890.78;4843625;29;20545;-77
2020/12/09 05:47:03;;;;;;;4.85;2.63;;;;;;;18.57;48.73;100887.28;4830875;29;20447;-77
2020/12/09 05:49:31;;;;;;;3.55;2.88;;;;;;;18.78;48.65;100917.81;4843752;29;20053;-75
2020/12/09 05:52:11;;;;;;;2.90;2.35;;;;;;;18.66;48.71;100895.16;4843516;29;20042;-75
2020/12/09 05:54:42;;;;;;;5.45;2.25;;;;;;;18.78;48.52;100923.91;4843631;29;20030;-75
2020/12/09 05:57:10;;;;;;;3.10;2.70;;;;;;;18.69;48.72;100902.13;4827720;29;20093;-73
2020/12/09 05:59:40;;;;;;;3.20;2.38;;;;;;;18.87;48.65;100929.09;4826637;29;20056;-74
2020/12/09 06:02:08;;;;;;;2.80;1.90;;;;;;;18.93;48.64;100928.22;4845569;29;20037;-76
2020/12/09 06:04:46;;;;;;;3.45;2.33;;;;;;;18.89;48.50;100922.09;4811983;29;20037;-76
2020/12/09 06:07:12;;;;;;;3.00;2.38;;;;;;;18.82;48.52;100915.16;4836766;29;20082;-77
2020/12/09 06:09:38;;;;;;;4.43;2.47;;;;;;;18.81;48.77;100918.66;4826873;29;20021;-76
2020/12/09 06:12:04;;;;;;;5.18;2.38;;;;;;;18.81;48.72;100915.16;4826227;29;20087;-77
2020/12/09 06:14:29;;;;;;;13.30;4.88;;;;;;;18.86;48.67;100922.13;4797199;29;20038;-76
2020/12/09 06:16:55;;;;;;;7.95;3.33;;;;;;;18.85;49.00;100920.38;4835887;29;20577;-77
2020/12/09 06:19:21;;;;;;;5.20;2.80;;;;;;;18.76;48.74;100906.44;4814276;29;20125;-76
2020/12/09 06:21:46;;;;;;;6.07;3.83;;;;;;;18.88;48.76;100922.97;4805602;29;20112;-76
2020/12/09 06:24:12;;;;;;;9.27;3.78;;;;;;;18.86;48.90;100924.72;4812210;29;20061;-76
2020/12/09 06:26:37;;;;;;;4.60;3.03;;;;;;;18.87;49.05;100923.84;4826447;29;20125;-76
2020/12/09 06:29:02;;;;;;;4.90;3.58;;;;;;;18.89;48.92;100934.34;4830325;29;20030;-76
2020/12/09 06:31:29;;;;;;;5.45;3.55;;;;;;;18.88;48.82;100937.81;4828422;29;20045;-76
2020/12/09 06:33:57;;;;;;;6.30;3.63;;;;;;;18.82;49.08;100920.41;4825390;29;20439;-77
2020/12/09 06:36:29;;;;;;;5.50;3.00;;;;;;;18.91;48.93;100933.44;4808524;29;20068;-77
2020/12/09 06:39:16;;;;;;;6.55;3.78;;;;;;;18.89;48.87;100931.72;4842979;29;20042;-76
2020/12/09 06:42:05;;;;;;;6.55;3.78;;;;;;;18.92;49.11;100934.31;4825006;29;20501;-77
2020/12/09 06:44:30;;;;;;;4.63;3.03;;;;;;;18.94;48.73;100921.22;4825986;29;20488;-77
2020/12/09 06:46:57;;;;;;;7.72;3.92;;;;;;;18.89;49.17;100927.34;4828667;29;20065;-77
2020/12/09 06:49:28;;;;;;;4.95;3.15;;;;;;;18.94;49.06;100936.94;4843085;29;20082;-76
2020/12/09 06:52:20;;;;;;;5.07;3.30;;;;;;;18.94;48.57;100934.31;4848480;29;20475;-76
2020/12/09 06:54:47;;;;;;;5.22;2.70;;;;;;;18.90;48.57;100930.84;4810928;29;20079;-77
2020/12/09 06:57:17;;;;;;;15.63;4.43;;;;;;;18.91;48.69;100936.06;4794484;29;20386;-76
2020/12/09 06:59:45;;;;;;;5.28;4.40;;;;;;;18.97;48.76;100936.91;4838176;29;20430;-76
2020/12/09 07:02:22;;;;;;;4.82;3.53;;;;;;;18.96;48.40;100933.41;4842789;29;20090;-77
2020/12/09 07:04:53;;;;;;;4.50;3.28;;;;;;;18.95;48.60;100934.31;4842811;29;20034;-76
2020/12/09 07:07:30;;;;;;;4.45;3.13;;;;;;;18.98;48.65;100938.63;4826665;29;20477;-76
2020/12/09 07:09:56;;;;;;;4.30;3.17;;;;;;;18.90;48.46;100923.84;4849087;29;20393;-79
2020/12/09 07:12:23;;;;;;;4.93;3.35;;;;;;;18.96;48.68;100943.00;4813250;29;20485;-78
2020/12/09 07:14:49;;;;;;;5.90;3.03;;;;;;;19.00;48.48;100950.00;4826018;29;20030;-76
2020/12/09 07:17:16;;;;;;;4.50;3.00;;;;;;;18.98;48.41;100951.75;4844154;29;20038;-75
2020/12/09 07:19:41;;;;;;;6.60;3.08;;;;;;;18.92;48.52;100945.69;4834075;29;20538;-76
2020/12/09 07:22:07;;;;;;;4.65;3.60;;;;;;;18.88;48.25;100937.81;4810783;29;20078;-77
2020/12/09 07:24:32;;;;;;;5.93;3.75;;;;;;;18.87;48.53;100949.19;4843883;29;20129;-77
2020/12/09 07:26:57;;;;;;;5.97;3.40;;;;;;;18.88;48.41;100951.81;4834632;29;20117;-76
2020/12/09 07:29:23;;;;;;;4.18;3.17;;;;;;;18.89;48.31;100953.53;4817957;29;20064;-77
2020/12/09 07:31:48;;;;;;;8.40;3.97;;;;;;;18.87;48.49;100962.28;4826671;29;20093;-77
2020/12/09 07:34:14;;;;;;;4.80;3.28;;;;;;;18.86;48.64;100956.19;4827748;29;20041;-76
2020/12/09 07:36:51;;;;;;;4.25;3.20;;;;;;;18.90;48.46;100957.91;4808414;29;20033;-76
2020/12/09 07:39:30;;;;;;;6.43;3.13;;;;;;;18.85;48.54;100953.56;4811282;29;20041;-77
2020/12/09 07:42:02;;;;;;;4.82;3.30;;;;;;;18.83;48.23;100956.19;4844348;29;20061;-76
2020/12/09 07:44:28;;;;;;;6.40;3.00;;;;;;;18.90;48.29;100964.91;4835938;29;20057;-77
2020/12/09 07:46:59;;;;;;;4.10;3.25;;;;;;;18.82;48.24;100950.97;4829429;29;20061;-77
2020/12/09 07:49:27;;;;;;;5.68;2.95;;;;;;;18.85;48.63;100956.19;4855631;29;20114;-77
2020/12/09 07:51:53;;;;;;;7.55;3.20;;;;;;;18.80;48.33;100943.13;4834314;29;20025;-77
2020/12/09 07:54:20;;;;;;;3.42;2.53;;;;;;;18.85;48.31;100951.81;4814227;29;20038;-76
2020/12/09 07:56:46;;;;;;;4.70;3.53;;;;;;;18.86;48.33;100957.91;4850001;29;20041;-77
2020/12/09 07:59:13;;;;;;;6.13;3.22;;;;;;;18.86;48.29;100947.44;4823886;29;20482;-77
2020/12/09 08:01:39;;;;;;;4.40;2.70;;;;;;;18.87;48.16;100957.91;4857944;29;20041;-76
2020/12/09 08:04:05;;;;;;;3.00;2.60;;;;;;;18.77;48.17;100937.00;4845384;29;20556;-76
2020/12/09 08:06:31;;;;;;;4.85;2.90;;;;;;;18.83;48.16;100948.31;4828854;29;20393;-76
2020/12/09 08:08:56;;;;;;;4.38;3.00;;;;;;;18.88;48.15;100956.16;4799217;29;20030;-76
2020/12/09 08:11:22;;;;;;;3.88;3.10;;;;;;;18.88;48.07;100964.03;4816272;29;20044;-77
2020/12/09 08:13:47;;;;;;;2.97;2.53;;;;;;;18.86;48.03;100964.03;4857181;29;20057;-77
2020/12/09 08:16:13;;;;;;;4.07;2.90;;;;;;;18.94;48.02;100971.88;4856576;29;20037;-77
2020/12/09 08:18:43;;;;;;;5.78;3.38;;;;;;;18.87;48.08;100959.66;4834043;29;20025;-77
2020/12/09 08:21:10;;;;;;;6.80;3.20;;;;;;;18.85;48.17;100964.91;4863781;29;20030;-77
2020/12/09 08:23:41;;;;;;;4.15;3.00;;;;;;;18.88;47.90;100962.28;4825930;29;20041;-74
2020/12/09 08:26:07;;;;;;;6.57;3.28;;;;;;;18.90;48.01;100971.00;4826710;29;20031;-75
2020/12/09 08:28:35;;;;;;;7.00;2.83;;;;;;;18.90;48.13;100971.00;4810633;29;20038;-77
2020/12/09 08:31:13;;;;;;;5.80;3.17;;;;;;;18.91;47.91;100964.91;4795885;29;20026;-74
2020/12/09 08:33:38;;;;;;;4.65;2.97;;;;;;;18.90;47.93;100965.78;4807357;29;20586;-75
2020/12/09 08:36:09;;;;;;;3.72;2.30;;;;;;;18.90;48.09;100957.91;4795081;29;20077;-74
2020/12/09 08:38:42;;;;;;;3.42;2.65;;;;;;;18.90;47.81;100954.41;4813906;29;20125;-74
2020/12/09 08:41:09;;;;;;;;;;;;;;;18.91;47.92;100959.66;4841025;29;20370;-76
2020/12/09 08:43:36;;;;;;;4.00;3.10;;;;;;;18.90;47.79;100968.41;4828312;29;19955;-74
2020/12/09 08:46:03;;;;;;;4.05;3.35;;;;;;;18.95;47.92;100967.50;4813317;29;20034;-77
2020/12/09 08:48:29;;;;;;;4.25;3.05;;;;;;;18.89;47.67;100956.16;4828181;29;20084;-77
2020/12/09 08:50:54;;;;;;;3.28;2.42;;;;;;;18.81;47.96;100946.63;4827726;29;20505;-74
2020/12/09 08:53:20;;;;;;;5.18;2.95;;;;;;;19.01;48.05;100957.84;4797822;29;20477;-74
2020/12/09 08:55:48;;;;;;;3.40;2.63;;;;;;;19.04;47.78;100957.84;4828456;29;20026;-74
2020/12/09 08:58:14;;;;;;;3.67;2.65;;;;;;;19.09;47.66;100956.03;4823435;29;20660;-74
2020/12/09 09:00:41;;;;;;;4.93;3.05;;;;;;;19.04;47.66;100964.84;4810359;29;20046;-74
2020/12/09 09:03:10;;;;;;;5.45;2.90;;;;;;;19.02;47.91;100956.97;4814503;29;20045;-74
2020/12/09 09:05:36;;;;;;;8.65;3.97;;;;;;;19.08;48.01;100966.56;4814277;29;20033;-74
2020/12/09 09:08:01;;;;;;;3.33;3.03;;;;;;;19.01;47.40;100959.59;4814995;29;20041;-74
2020/12/09 09:10:26;;;;;;;3.53;2.70;;;;;;;18.97;48.20;100950.88;4810682;29;20058;-74
2020/12/09 09:12:52;;;;;;;3.05;2.65;;;;;;;19.06;47.74;100955.22;4796614;29;20541;-76
2020/12/09 09:15:17;;;;;;;5.18;3.30;;;;;;;19.07;47.72;100964.81;4841450;29;20033;-74
2020/12/09 09:17:43;;;;;;;3.17;2.88;;;;;;;19.01;47.87;100963.09;4831489;29;20034;-75
2020/12/09 09:20:08;;;;;;;3.35;2.63;;;;;;;19.03;47.84;100960.47;4815381;29;20125;-74
2020/12/09 09:22:34;;;;;;;3.72;3.17;;;;;;;19.05;47.50;100963.97;4826118;29;20042;-75
2020/12/09 09:24:59;;;;;;;3.50;3.15;;;;;;;19.02;47.65;100958.72;4819922;29;20037;-75
2020/12/09 09:27:24;;;;;;;4.20;3.80;;;;;;;19.02;47.66;100950.88;4823625;29;20045;-74
2020/12/09 09:29:50;;;;;;;3.92;3.30;;;;;;;19.01;47.25;100951.75;4846578;29;20065;-76
2020/12/09 09:32:17;;;;;;;4.80;3.78;;;;;;;18.95;47.28;100963.13;4817668;29;20034;-75
2020/12/09 09:34:42;;;;;;;4.38;3.15;;;;;;;19.03;47.80;100969.22;4832692;29;20022;-75
2020/12/09 09:37:08;;;;;;;3.88;3.20;;;;;;;19.07;47.54;100980.56;4822600;29;20050;-74
2020/12/09 09:39:34;;;;;;;3.50;3.00;;;;;;;19.01;47.20;100970.94;4804467;29;20030;-76
2020/12/09 09:42:00;;;;;;;3.78;2.90;;;;;;;19.01;47.66;100967.47;4828730;29;20065;-76
2020/12/09 09:44:25;;;;;;;4.40;3.55;;;;;;;19.09;47.42;100973.53;4828176;29;20030;-74
2020/12/09 09:46:51;;;;;;;3.75;3.20;;;;;;;19.05;47.12;100970.06;4828060;29;20374;-74
2020/12/09 09:49:16;;;;;;;4.03;2.88;;;;;;;19.03;47.70;100965.72;4827338;29;20393;-74
2020/12/09 09:51:41;;;;;;;3.47;3.10;;;;;;;19.11;47.41;100963.91;4827695;29;20397;-75
2020/12/09 09:54:07;;;;;;;4.15;3.47;;;;;;;19.06;46.99;100970.94;4835059;29;20117;-73
2020/12/09 09:56:32;;;;;;;3.92;3.38;;;;;;;19.04;47.45;100965.72;4817242;29;20072;-74
2020/12/09 09:58:58;;;;;;;3.97;2.85;;;;;;;19.11;47.66;100975.25;4817787;29;20500;-77
2020/12/09 10:01:23;;;;;;;3.72;3.15;;;;;;;19.09;47.01;100966.53;4843934;29;20026;-74
2020/12/09 10:03:48;;;;;;;3.80;3.22;;;;;;;19.06;47.16;100965.69;4827102;29;20148;-75
2020/12/09 10:06:13;;;;;;;3.50;2.67;;;;;;;19.11;47.07;100959.53;4811112;29;20573;-74
2020/12/09 10:08:39;;;;;;;4.40;4.00;;;;;;;19.09;47.03;100957.78;4821563;29;20046;-74
2020/12/09 10:11:04;;;;;;;3.88;3.47;;;;;;;19.09;47.37;100960.41;4832344;29;20038;-74
2020/12/09 10:13:30;;;;;;;4.15;3.33;;;;;;;19.14;47.63;100966.53;4828764;29;20087;-74
2020/12/09 10:15:55;;;;;;;3.72;3.33;;;;;;;19.11;47.03;100954.28;4816821;29;20038;-75
2020/12/09 10:18:21;;;;;;;4.22;3.78;;;;;;;19.07;46.97;100951.72;4827990;29;20049;-75
2020/12/09 10:20:46;;;;;;;4.82;4.00;;;;;;;19.12;47.35;100956.03;4818903;29;20113;-74
2020/12/09 10:23:12;;;;;;;3.70;3.20;;;;;;;19.12;46.95;100952.53;4818404;29;20492;-74
2020/12/09 10:25:37;;;;;;;4.32;3.50;;;;;;;19.06;46.87;100947.34;4836986;29;20423;-75
2020/12/09 10:28:02;;;;;;;3.70;3.30;;;;;;;19.04;47.44;100942.13;4827363;29;20042;-75
2020/12/09 10:30:28;;;;;;;4.18;3.58;;;;;;;19.13;47.18;100936.81;4818571;29;20045;-74
2020/12/09 10:32:53;;;;;;;3.95;3.10;;;;;;;19.06;46.86;100934.25;4827177;29;20495;-75
2020/12/09 10:35:19;;;;;;;3.85;3.45;;;;;;;19.08;46.99;100932.50;4826668;29;20034;-74
2020/12/09 10:37:44;;;;;;;4.38;3.15;;;;;;;19.07;46.96;100934.25;4822756;29;20033;-74
2020/12/09 10:40:10;;;;;;;4.28;3.30;;;;;;;19.07;46.76;100938.63;4801176;29;20474;-74
2020/12/09 10:42:35;;;;;;;3.70;3.38;;;;;;;19.09;46.90;100942.06;4807040;29;20135;-73
2020/12/09 10:45:01;;;;;;;3.67;3.08;;;;;;;19.11;47.00;100945.56;4808188;29;20474;-74
2020/12/09 10:47:26;;;;;;;4.07;3.58;;;;;;;19.11;46.77;100927.22;4808350;29;20029;-75
2020/12/09 10:49:52;;;;;;;5.20;3.60;;;;;;;19.12;46.75;100935.06;4808216;29;20031;-74
2020/12/09 10:52:17;;;;;;;4.00;3.60;;;;;;;19.14;47.13;100925.44;4824607;29;20118;-74
2020/12/09 10:54:43;;;;;;;4.47;4.00;;;;;;;19.16;46.34;100930.69;4805672;29;20042;-74
2020/12/09 10:57:08;;;;;;;4.22;3.30;;;;;;;19.07;46.88;100912.41;4811146;29;20125;-74
2020/12/09 10:59:34;;;;;;;4.35;3.30;;;;;;;19.14;47.12;100922.81;4810347;29;20040;-74
2020/12/09 11:01:59;;;;;;;3.28;2.97;;;;;;;19.10;46.71;100914.97;4810293;29;20045;-74
2020/12/09 11:04:25;;;;;;;12.77;3.92;;;;;;;19.08;46.79;100930.75;4826444;29;20054;-74
2020/12/09 11:06:50;;;;;;;3.35;3.05;;;;;;;19.10;47.04;100914.97;4826050;29;20038;-76
2020/12/09 11:09:15;;;;;;;4.20;3.30;;;;;;;19.15;46.81;100928.94;4811027;29;20026;-74
2020/12/09 11:11:47;;;;;;;3.88;3.05;;;;;;;19.05;46.45;100909.78;4842305;29;20034;-77
2020/12/09 11:14:13;;;;;;;4.38;3.38;;;;;;;19.14;46.95;100919.34;4812419;29;20113;-74
2020/12/09 11:16:39;;;;;;;4.13;3.15;;;;;;;19.13;46.92;100905.34;4826191;29;20034;-74
2020/12/09 11:19:05;;;;;;;3.55;2.92;;;;;;;19.14;46.37;100917.59;4808639;29;20046;-74
2020/12/09 11:21:30;;;;;;;3.53;3.22;;;;;;;19.15;46.98;100919.31;4810364;29;20030;-74
2020/12/09 11:23:56;;;;;;;4.13;2.85;;;;;;;19.14;46.74;100907.09;4811718;29;20103;-74
2020/12/09 11:26:22;;;;;;;4.68;3.80;;;;;;;19.11;46.47;100901.00;4802413;29;20496;-74